createdAt,value
2024-01-18T00:01:52.220Z,0.20
2024-01-18T00:05:00.381Z,0.13
2024-01-18T00:08:08.786Z,0.20
2024-01-18T00:11:18.775Z,0.10
2024-01-18T00:14:26.997Z,0.10
2024-01-18T00:17:35.564Z,0.10
2024-01-18T00:20:43.895Z,0.20
2024-01-18T00:23:52.344Z,0.10
2024-01-18T00:27:02.641Z,0.10
2024-01-18T00:30:12.392Z,0.10
2024-01-18T00:33:20.819Z,0.00
2024-01-18T00:36:30.374Z,0.07
2024-01-18T00:39:43.850Z,0.17
2024-01-18T00:42:53.593Z,0.10
2024-01-18T00:46:05.969Z,0.17
2024-01-18T00:49:14.332Z,0.20
2024-01-18T00:52:22.577Z,0.10
2024-01-18T00:55:30.715Z,0.10
2024-01-18T00:58:42.168Z,0.20
2024-01-18T01:01:50.750Z,0.10
2024-01-18T01:04:59.559Z,0.10
2024-01-18T01:08:08.011Z,0.20
2024-01-18T01:11:16.918Z,0.00
2024-01-18T01:14:26.452Z,0.00
2024-01-18T01:17:34.673Z,0.10
2024-01-18T01:20:43.161Z,0.10
2024-01-18T01:23:52.918Z,0.10
2024-01-18T01:27:01.813Z,0.10
2024-01-18T01:30:13.052Z,0.00
2024-01-18T01:33:21.369Z,0.10
2024-01-18T01:36:29.774Z,0.00
2024-01-18T01:39:38.066Z,0.00
2024-01-18T01:42:46.332Z,0.00
2024-01-18T01:45:55.892Z,0.00
2024-01-18T01:49:08.095Z,0.10
2024-01-18T01:52:17.520Z,0.10
2024-01-18T01:55:26.044Z,0.00
2024-01-18T01:58:35.253Z,0.00
2024-01-18T02:01:47.104Z,0.00
2024-01-18T02:04:56.556Z,0.03
2024-01-18T02:08:05.395Z,0.00
2024-01-18T02:11:15.590Z,0.00
2024-01-18T02:14:24.128Z,0.10
2024-01-18T02:17:33.810Z,0.00
2024-01-18T02:20:44.535Z,0.10
2024-01-18T02:24:01.825Z,0.00
2024-01-18T02:27:11.430Z,0.00
2024-01-18T02:30:19.741Z,0.00
2024-01-18T02:33:28.126Z,0.00
2024-01-18T02:36:36.489Z,0.10
2024-01-18T02:39:44.836Z,0.00
2024-01-18T02:42:55.485Z,0.00
2024-01-18T02:46:03.723Z,0.00
2024-01-18T02:49:11.924Z,0.00
2024-01-18T02:52:20.510Z,0.10
2024-01-18T02:55:28.755Z,0.00
2024-01-18T02:58:38.284Z,0.10
2024-01-18T03:01:46.463Z,0.00
2024-01-18T03:04:54.743Z,0.00
2024-01-18T03:08:03.177Z,0.00
2024-01-18T03:11:11.383Z,0.00
2024-01-18T03:14:21.633Z,0.10
2024-01-18T03:17:29.837Z,0.00
2024-01-18T03:20:38.009Z,0.10
2024-01-18T03:23:46.165Z,0.03
2024-01-18T03:30:17.488Z,0.00
2024-01-18T03:33:26.326Z,0.10
2024-01-18T03:36:34.669Z,0.20
2024-01-18T03:39:42.963Z,0.00
2024-01-18T03:42:51.311Z,0.03
2024-01-18T03:46:00.948Z,0.00
2024-01-18T03:49:09.580Z,0.00
2024-01-18T03:52:18.161Z,0.00
2024-01-18T03:55:26.428Z,0.00
2024-01-18T03:58:34.655Z,0.00
2024-01-18T04:01:44.852Z,0.00
2024-01-18T04:04:54.560Z,0.00
2024-01-18T04:08:02.757Z,0.03
2024-01-18T04:11:11.125Z,0.10
2024-01-18T04:14:24.728Z,0.00
2024-01-18T04:17:34.508Z,0.00
2024-01-18T04:20:42.909Z,0.00
2024-01-18T04:23:51.209Z,0.50
2024-01-18T04:26:59.694Z,0.10
2024-01-18T04:30:09.989Z,1.33
2024-01-18T04:33:20.403Z,1.50
2024-01-18T04:36:28.824Z,3.07
2024-01-18T04:39:37.136Z,6.47
2024-01-18T04:42:45.658Z,1.97
2024-01-18T04:45:54.189Z,1.40
2024-01-18T04:49:05.004Z,0.20
2024-01-18T04:52:13.357Z,0.70
2024-01-18T04:55:22.261Z,0.23
2024-01-18T04:58:30.529Z,0.63
2024-01-18T05:01:41.004Z,0.40
2024-01-18T05:04:51.052Z,0.50
2024-01-18T05:07:59.422Z,0.20
2024-01-18T05:11:08.782Z,0.53
2024-01-18T05:14:17.355Z,0.57
2024-01-18T05:17:35.292Z,0.50
2024-01-18T05:20:44.919Z,0.50
2024-01-18T05:23:53.291Z,0.40
2024-01-18T05:27:01.629Z,1.10
2024-01-18T05:30:11.460Z,1.37
2024-01-18T05:33:20.254Z,0.90
2024-01-18T05:36:30.099Z,1.10
2024-01-18T05:39:38.474Z,0.80
2024-01-18T05:42:46.872Z,0.40
2024-01-18T05:45:56.064Z,0.90
2024-01-18T05:49:04.691Z,0.57
2024-01-18T05:52:14.808Z,0.30
2024-01-18T05:55:23.361Z,0.40
2024-01-18T05:58:33.272Z,0.30
2024-01-18T06:01:42.675Z,0.20
2024-01-18T06:04:50.933Z,0.23
2024-01-18T06:08:00.904Z,0.20
2024-01-18T06:11:09.819Z,0.50
2024-01-18T06:14:17.983Z,0.73
2024-01-18T06:17:26.303Z,1.60
2024-01-18T06:20:34.802Z,0.40
2024-01-18T06:23:44.505Z,0.60
2024-01-18T06:26:54.933Z,1.47
2024-01-18T06:30:04.108Z,1.13
2024-01-18T06:33:14.246Z,1.20
2024-01-18T06:36:23.628Z,0.83
2024-01-18T06:39:33.476Z,0.40
2024-01-18T06:42:41.870Z,0.50
2024-01-18T06:45:55.812Z,0.70
2024-01-18T06:49:04.786Z,0.80
2024-01-18T06:52:13.099Z,0.50
2024-01-18T06:55:23.599Z,0.50
2024-01-18T06:58:31.807Z,0.50
2024-01-18T07:01:40.212Z,1.40
2024-01-18T07:04:48.757Z,0.80
2024-01-18T07:07:57.390Z,0.80
2024-01-18T07:11:07.420Z,0.60
2024-01-18T07:14:16.052Z,0.50
2024-01-18T07:17:24.305Z,0.30
2024-01-18T07:20:32.570Z,0.50
2024-01-18T07:23:40.758Z,0.40
2024-01-18T07:26:50.342Z,0.40
2024-01-18T07:29:58.672Z,0.40
2024-01-18T07:33:08.067Z,0.30
2024-01-18T07:36:16.486Z,0.23
2024-01-18T07:39:25.444Z,0.30
2024-01-18T07:42:36.803Z,0.40
2024-01-18T07:45:46.707Z,0.73
2024-01-18T07:48:55.306Z,0.40
2024-01-18T07:52:03.548Z,0.23
2024-01-18T07:55:11.842Z,0.30
2024-01-18T07:58:24.536Z,0.20
2024-01-18T08:01:36.416Z,0.30
2024-01-18T08:04:46.570Z,0.40
2024-01-18T08:07:54.987Z,0.40
2024-01-18T08:11:03.289Z,0.40
2024-01-18T08:14:16.283Z,0.63
2024-01-18T08:17:26.297Z,0.40
2024-01-18T08:20:34.943Z,0.63
2024-01-18T08:23:43.187Z,0.30
2024-01-18T08:26:51.396Z,0.50
2024-01-18T08:30:01.174Z,0.60
2024-01-18T08:33:10.373Z,0.43
2024-01-18T08:36:19.185Z,0.50
2024-01-18T08:39:28.081Z,0.83
2024-01-18T08:42:36.983Z,0.90
2024-01-18T08:45:47.128Z,5.20
2024-01-18T08:48:55.457Z,2.07
2024-01-18T08:52:04.169Z,1.00
2024-01-18T08:55:12.424Z,0.57
2024-01-18T08:58:20.674Z,0.60
2024-01-18T09:01:30.315Z,0.50
2024-01-18T09:04:39.451Z,0.73
2024-01-18T09:07:47.905Z,0.80
2024-01-18T09:10:56.243Z,0.60
2024-01-18T09:14:04.784Z,0.77
2024-01-18T09:17:14.629Z,0.43
2024-01-18T09:20:23.659Z,0.60
2024-01-18T09:23:31.942Z,0.40
2024-01-18T09:26:40.284Z,0.40
2024-01-18T09:29:48.596Z,0.23
2024-01-18T09:32:58.280Z,0.30
2024-01-18T09:36:07.284Z,0.30
2024-01-18T09:39:18.353Z,0.50
2024-01-18T09:42:34.300Z,0.90
2024-01-18T09:45:49.182Z,0.73
2024-01-18T09:49:03.185Z,0.50
2024-01-18T09:52:13.955Z,0.40
2024-01-18T09:55:22.264Z,0.50
2024-01-18T09:58:31.462Z,0.40
2024-01-18T10:01:40.400Z,0.67
2024-01-18T10:04:51.546Z,0.80
2024-01-18T10:07:59.925Z,0.80
2024-01-18T10:11:08.189Z,0.40
2024-01-18T10:14:17.236Z,0.30
2024-01-18T10:17:27.040Z,0.50
2024-01-18T10:20:37.831Z,0.43
2024-01-18T10:23:46.544Z,0.40
2024-01-18T10:27:05.463Z,0.20
2024-01-18T10:30:16.917Z,0.20
2024-01-18T10:33:25.374Z,0.30
2024-01-18T10:36:36.251Z,0.67
2024-01-18T10:39:48.236Z,0.27
2024-01-18T10:42:57.379Z,0.37
2024-01-18T10:46:07.565Z,0.20
2024-01-18T10:49:17.215Z,0.20
2024-01-18T10:52:28.569Z,0.20
2024-01-18T10:55:37.044Z,0.20
2024-01-18T10:58:46.079Z,0.20
2024-01-18T11:01:55.103Z,0.30
2024-01-18T11:05:04.378Z,0.30
2024-01-18T11:08:15.337Z,0.10
2024-01-18T11:11:23.824Z,0.20
2024-01-18T11:14:34.259Z,0.30
2024-01-18T11:17:47.797Z,0.40
2024-01-18T11:21:09.576Z,0.30
2024-01-18T11:24:20.612Z,0.30
2024-01-18T11:27:29.060Z,0.20
2024-01-18T11:30:40.914Z,0.40
2024-01-18T11:33:51.818Z,0.37
2024-01-18T11:37:14.938Z,0.33
2024-01-18T11:40:25.555Z,0.27
2024-01-18T11:43:55.643Z,0.20
2024-01-18T11:47:04.736Z,2.17
2024-01-18T11:50:13.905Z,1.97
2024-01-18T11:53:22.493Z,2.43
2024-01-18T11:56:36.891Z,1.53
2024-01-18T11:59:47.056Z,1.47
2024-01-18T12:02:56.909Z,2.37
2024-01-18T12:06:05.613Z,1.27
2024-01-18T12:09:13.908Z,0.90
2024-01-18T12:12:23.859Z,1.00
2024-01-18T12:15:33.229Z,0.63
2024-01-18T12:18:42.625Z,1.00
2024-01-18T12:21:51.696Z,0.40
2024-01-18T12:25:03.406Z,0.50
2024-01-18T12:28:15.762Z,1.07
2024-01-18T12:31:24.549Z,0.70
2024-01-18T12:34:34.140Z,0.50
2024-01-18T12:37:42.601Z,0.70
2024-01-18T12:40:53.166Z,1.50
2024-01-18T12:44:08.155Z,0.67
2024-01-18T12:47:17.094Z,1.20
2024-01-18T12:50:26.555Z,0.50
2024-01-18T12:53:35.052Z,0.70
2024-01-18T12:56:46.236Z,0.20
2024-01-18T12:59:55.833Z,0.80
2024-01-18T13:03:14.687Z,0.70
2024-01-18T13:06:23.603Z,1.20
2024-01-18T13:09:35.019Z,0.70
2024-01-18T13:12:46.210Z,0.37
2024-01-18T13:16:00.265Z,0.50
2024-01-18T13:19:10.075Z,0.50
2024-01-18T13:22:18.387Z,0.83
2024-01-18T13:25:26.618Z,0.50
2024-01-18T13:28:35.394Z,0.70
2024-01-18T13:31:45.240Z,0.77
2024-01-18T13:34:53.522Z,0.97
2024-01-18T13:38:02.529Z,0.90
2024-01-18T13:41:11.972Z,0.50
2024-01-18T13:44:20.622Z,0.37
2024-01-18T13:47:30.550Z,0.60
2024-01-18T13:50:38.780Z,0.40
2024-01-18T13:53:51.349Z,0.90
2024-01-18T13:56:59.773Z,0.20
2024-01-18T14:00:09.955Z,0.40
2024-01-18T14:03:22.471Z,0.40
2024-01-18T14:06:31.821Z,0.50
2024-01-18T14:09:41.536Z,0.30
2024-01-18T14:12:50.841Z,0.20
2024-01-18T14:16:00.036Z,0.20
2024-01-18T14:19:11.203Z,0.60
2024-01-18T14:22:19.466Z,0.20
2024-01-18T14:25:27.796Z,0.30
2024-01-18T14:28:37.739Z,0.30
2024-01-18T14:31:46.000Z,0.30
2024-01-18T14:34:55.718Z,0.50
2024-01-18T14:38:06.237Z,0.20
2024-01-18T14:41:17.278Z,0.20
2024-01-18T14:44:25.978Z,0.30
2024-01-18T14:47:34.293Z,0.17
2024-01-18T14:50:47.207Z,0.30
2024-01-18T14:53:55.543Z,0.20
2024-01-18T14:57:03.979Z,0.10
2024-01-18T15:00:16.178Z,0.00
2024-01-18T15:03:24.629Z,0.40
2024-01-18T15:06:34.946Z,0.30
2024-01-18T15:09:44.268Z,0.30
2024-01-18T15:12:54.626Z,0.20
2024-01-18T15:16:08.243Z,0.37
2024-01-18T15:19:18.075Z,0.20
2024-01-18T15:22:28.372Z,0.40
2024-01-18T15:29:05.340Z,0.27
2024-01-18T15:32:14.037Z,0.20
2024-01-18T15:35:23.197Z,0.33
2024-01-18T15:38:32.962Z,0.20
2024-01-18T15:41:46.484Z,0.40
2024-01-18T15:44:55.110Z,0.60
2024-01-18T15:48:03.855Z,0.30
2024-01-18T15:51:14.424Z,0.40
2024-01-18T15:54:24.480Z,0.33
2024-01-18T15:57:32.905Z,0.23
2024-01-18T16:00:42.081Z,0.50
2024-01-18T16:03:50.475Z,0.47
2024-01-18T16:06:58.838Z,0.40
2024-01-18T16:10:10.406Z,0.30
2024-01-18T16:13:18.991Z,0.00
2024-01-18T16:16:28.041Z,0.20
2024-01-18T16:19:36.421Z,0.23
2024-01-18T16:22:44.766Z,0.23
2024-01-18T16:25:54.418Z,0.20
2024-01-18T16:29:02.688Z,0.30
2024-01-18T16:32:11.260Z,0.30
2024-01-18T16:35:20.054Z,0.40
2024-01-18T16:38:28.943Z,0.50
2024-01-18T16:41:38.957Z,1.47
2024-01-18T16:44:47.750Z,1.50
2024-01-18T16:47:57.627Z,1.47
2024-01-18T16:51:06.671Z,1.87
2024-01-18T16:54:15.024Z,1.90
2024-01-18T16:57:32.059Z,2.30
2024-01-18T17:00:41.689Z,1.73
2024-01-18T17:03:50.000Z,2.93
2024-01-18T17:06:58.506Z,3.17
2024-01-18T17:10:08.985Z,3.80
2024-01-18T17:13:19.153Z,3.20
2024-01-18T17:16:27.697Z,3.43
2024-01-18T17:19:37.144Z,5.13
2024-01-18T17:22:45.685Z,4.77
2024-01-18T17:25:54.037Z,4.20
2024-01-18T17:29:04.548Z,5.03
2024-01-18T17:32:13.218Z,4.53
2024-01-18T17:35:21.920Z,1.97
2024-01-18T17:38:30.402Z,5.47
2024-01-18T17:41:38.995Z,5.03
2024-01-18T17:44:49.162Z,5.53
2024-01-18T17:47:57.890Z,5.73
2024-01-18T17:51:08.326Z,5.90
2024-01-18T17:54:16.637Z,5.00
2024-01-18T17:57:25.339Z,4.70
2024-01-18T18:00:39.851Z,3.13
2024-01-18T18:03:48.660Z,2.57
2024-01-18T18:06:56.927Z,3.00
2024-01-18T18:10:06.511Z,2.97
2024-01-18T18:13:15.436Z,3.03
2024-01-18T18:16:25.382Z,3.93
2024-01-18T18:19:34.654Z,5.00
2024-01-18T18:22:43.116Z,5.70
2024-01-18T18:25:51.319Z,6.23
2024-01-18T18:28:59.597Z,5.47
2024-01-18T18:32:09.583Z,5.37
2024-01-18T18:35:17.876Z,4.77
2024-01-18T18:38:30.559Z,5.33
2024-01-18T18:41:41.863Z,5.27
2024-01-18T18:44:50.242Z,5.00
2024-01-18T18:48:00.383Z,5.37
2024-01-18T18:51:10.128Z,5.23
2024-01-18T18:54:18.409Z,5.30
2024-01-18T18:57:26.838Z,5.40
2024-01-18T19:00:35.055Z,5.30
2024-01-18T19:03:44.856Z,4.47
2024-01-18T19:06:53.145Z,3.20
2024-01-18T19:10:01.346Z,5.37
2024-01-18T19:13:09.639Z,5.30
2024-01-18T19:16:17.903Z,4.90
2024-01-18T19:19:28.121Z,4.60
2024-01-18T19:22:41.112Z,5.33
2024-01-18T19:25:49.483Z,4.33
2024-01-18T19:28:58.406Z,5.23
2024-01-18T19:32:07.608Z,4.97
2024-01-18T19:35:19.005Z,5.47
2024-01-18T19:38:27.760Z,6.17
2024-01-18T19:41:36.406Z,6.40
2024-01-18T19:44:44.874Z,5.63
2024-01-18T19:47:53.535Z,4.77
2024-01-18T19:51:03.954Z,4.10
2024-01-18T19:54:12.694Z,5.27
2024-01-18T19:57:22.580Z,3.70
2024-01-18T20:00:31.651Z,3.93
2024-01-18T20:03:40.235Z,3.00
2024-01-18T20:06:50.136Z,4.10
2024-01-18T20:09:58.427Z,4.37
2024-01-18T20:13:06.884Z,3.83
2024-01-18T20:16:15.972Z,3.07
2024-01-18T20:19:25.876Z,2.93
2024-01-18T20:22:35.623Z,2.53
2024-01-18T20:25:44.201Z,2.93
2024-01-18T20:28:52.503Z,3.50
2024-01-18T20:32:01.242Z,3.83
2024-01-18T20:35:10.592Z,3.10
2024-01-18T20:38:20.515Z,2.83
2024-01-18T20:41:28.917Z,4.00
2024-01-18T20:44:37.977Z,3.10
2024-01-18T20:47:46.275Z,4.10
2024-01-18T20:50:54.750Z,2.77
2024-01-18T20:54:04.630Z,3.60
2024-01-18T20:57:13.051Z,4.37
2024-01-18T21:00:28.701Z,3.57
2024-01-18T21:03:40.781Z,3.90
2024-01-18T21:06:49.315Z,4.13
2024-01-18T21:09:59.234Z,4.70
2024-01-18T21:13:07.519Z,4.43
2024-01-18T21:16:16.251Z,4.43
2024-01-18T21:19:24.694Z,5.27
2024-01-18T21:22:33.009Z,4.87
2024-01-18T21:29:05.292Z,6.13
2024-01-18T21:32:13.621Z,5.27
2024-01-18T21:35:22.303Z,5.37
2024-01-18T21:38:30.761Z,6.27
2024-01-18T21:41:45.396Z,4.97
2024-01-18T21:44:54.333Z,6.03
2024-01-18T21:48:03.202Z,6.20
2024-01-18T21:51:11.708Z,5.37
2024-01-18T21:54:20.668Z,6.40
2024-01-18T21:57:30.548Z,5.30
2024-01-18T22:00:39.415Z,5.03
2024-01-18T22:03:48.644Z,5.80
2024-01-18T22:06:57.133Z,5.23
2024-01-18T22:10:06.670Z,6.47
2024-01-18T22:13:16.430Z,5.67
2024-01-18T22:16:24.655Z,5.00
2024-01-18T22:22:44.917Z,6.30
2024-01-18T22:25:53.338Z,5.77
2024-01-18T22:29:03.001Z,4.17
2024-01-18T22:32:13.780Z,5.83
2024-01-18T22:35:22.665Z,4.83
2024-01-18T22:38:31.374Z,4.37
2024-01-18T22:41:39.943Z,6.33
2024-01-18T22:44:49.558Z,4.67
2024-01-18T22:47:58.875Z,4.07
2024-01-18T22:51:07.525Z,4.47
2024-01-18T22:54:15.804Z,5.33
2024-01-18T22:57:24.101Z,4.23
2024-01-18T23:00:34.431Z,2.47
2024-01-18T23:03:44.775Z,4.63
2024-01-18T23:06:53.165Z,3.30
2024-01-18T23:10:01.483Z,2.37
2024-01-18T23:13:09.703Z,3.50
2024-01-18T23:16:21.249Z,4.17
2024-01-18T23:19:29.692Z,4.80
2024-01-18T23:22:38.760Z,5.30
2024-01-18T23:25:47.565Z,5.00
2024-01-18T23:28:55.870Z,5.23
2024-01-18T23:32:06.778Z,4.77
2024-01-18T23:35:15.122Z,5.23
2024-01-18T23:38:23.398Z,5.50
2024-01-18T23:41:32.531Z,4.10
2024-01-18T23:44:41.655Z,4.60
2024-01-18T23:47:51.735Z,5.13
2024-01-18T23:51:00.190Z,4.50
2024-01-18T23:54:08.790Z,5.57
2024-01-18T23:57:17.026Z,5.20
